Last 7 Days

Abernathy 3 (AB3)

Hourly Data | America/Los_Angeles
as of 4/23/19 5:22 PM PDT
Date & Time Temp (°F) RH (%) Dew Pt (°F) Wind Spd (mph) Wind Dir (°) Wind Gust (mph) Latest Rain (In) Daily Rain (In) Daily Min Temp (°F) Daily Max Temp (°F)
4/23/19 - 1700 89.1 32 55.4 7.4 SW | 214 12.1 0.00 0.00 50.6 90.9
4/23/19 - 1600 89.3 32 55.7 6.1 SW | 223 14.8 0.00 0.00 50.6 90.9
4/23/19 - 1500 88.8 32 55.0 4.3 E | 95 12.1 0.00 0.00 50.6 90.5
4/23/19 - 1400 86.9 34 55.2 3.4 WNW | 295 9.1 0.00 0.00 50.6 88.3
4/23/19 - 1300 84.5 35 53.9 4.6 S | 174 10.8 0.00 0.00 50.6 86.3
4/23/19 - 1200 80.9 40 54.5 4.2 S | 186 7.8 0.00 0.00 50.6 82.8
4/23/19 - 1100 77.1 46 54.7 4.7 S | 171 8.1 0.00 0.00 50.6 78.6
4/23/19 - 1000 73.6 51 54.3 3.3 SSE | 164 6.8 0.00 0.00 50.6 75.7
4/23/19 - 0900 67.9 62 54.6 1.3 E | 81 4.8 0.00 0.00 50.6 71.7
4/23/19 - 0800 58.5 85 53.8 1.4 NNW | 327 3.8 0.00 0.00 50.6 71.7
4/23/19 - 0700 51.5 94 49.8 1.3 NNW | 346 3.4 0.00 0.00 50.6 71.7
4/23/19 - 0600 52.1 91 49.6 1.6 NNW | 329 4.1 0.00 0.00 50.8 71.7
4/23/19 - 0500 55.6 86 51.5 1.4 NW | 312 4.1 0.00 0.00 53.5 71.7
4/23/19 - 0400 59.2 75 51.1 3.5 SE | 137 8.1 0.00 0.00 56.9 71.7
4/23/19 - 0300 64.2 54 46.8 2.2 E | 100 7.8 0.00 0.00 61.5 71.7
4/23/19 - 0200 70.0 37 42.4 3.5 NNW | 343 10.1 0.00 0.00 61.7 71.7
4/23/19 - 0100 66.8 43 43.2 2.6 W | 272 9.1 0.00 0.00 44.9 87.4
4/23/19 - 0000 70.4 34 40.4 5.6 N | 352 8.4 0.00 0.00 44.9 87.4
4/22/19 - 2300 69.2 33 38.5 5.1 NNW | 343 8.4 0.00 0.00 44.9 87.4
4/22/19 - 2200 64.0 47 43.4 1.9 WSW | 246 5.4 0.00 0.00 44.9 87.4
4/22/19 - 2100 68.2 40 42.7 1.4 W | 278 3.4 0.00 0.00 44.9 87.4
4/22/19 - 2000 76.8 30 42.4 2.9 S | 180 6.8 0.00 0.00 44.9 87.4
4/22/19 - 1900 83.5 20 38.5 3.7 WNW | 302 7.8 0.00 0.00 44.9 87.4
4/22/19 - 1800 86.1 16 35.0 6.5 NNW | 337 13.2 0.00 0.00 44.9 87.4
4/22/19 - 1700 86.9 15 32.7 7.1 NW | 323 12.8 0.00 0.00 44.9 87.4
4/22/19 - 1600 86.3 16 34.7 8.3 NW | 314 14.8 0.00 0.00 44.9 86.9
4/22/19 - 1500 85.7 18 37.0 8.3 NW | 308 14.8 0.00 0.00 44.9 86.4
4/22/19 - 1400 83.8 21 39.2 7.2 NW | 310 15.2 0.00 0.00 44.9 85.2
4/22/19 - 1300 81.7 25 42.0 8.8 WNW | 297 16.2 0.00 0.00 44.9 82.3
4/22/19 - 1200 79.6 27 42.4 8.5 NW | 305 18.8 0.00 0.00 44.9 80.8
4/22/19 - 1100 77.5 29 43.0 4.9 NW | 310 16.2 0.00 0.00 44.9 78.5
4/22/19 - 1000 74.5 34 44.5 2.2 W | 275 9.5 0.00 0.00 44.9 75.6
4/22/19 - 0900 67.7 53 49.5 1.3 NE | 36 7.1 0.00 0.00 44.9 72.3
4/22/19 - 0800 55.9 75 48.1 2.2 ENE | 66 6.1 0.00 0.00 44.9 61.1
4/22/19 - 0700 52.6 73 44.0 2.6 WNW | 298 5.1 0.00 0.00 44.9 56.0
4/22/19 - 0600 45.9 93 44.1 0.6 WSW | 246 2.4 0.00 0.00 44.9 56.0
4/22/19 - 0500 49.2 87 45.5 1.4 SSE | 150 5.1 0.00 0.00 46.8 56.0
4/22/19 - 0400 51.4 81 45.9 2.0 S | 174 4.8 0.00 0.00 50.6 56.0
4/22/19 - 0300 51.5 82 46.1 0.8 SSW | 202 3.4 0.00 0.00 50.9 56.0
4/22/19 - 0200 54.2 76 46.9 2.8 S | 188 9.1 0.00 0.00 52.2 56.0
4/22/19 - 0100 54.5 77 47.4 4.6 SW | 218 9.8 0.00 0.00 42.2 74.8
4/22/19 - 0000 52.4 83 47.3 1.9 SW | 234 5.4 0.00 0.00 42.2 74.8
4/21/19 - 2300 55.6 75 47.8 3.2 W | 262 10.1 0.00 0.00 42.2 74.8
4/21/19 - 2200 58.5 65 46.7 5.3 S | 187 9.8 0.00 0.00 42.2 74.8
4/21/19 - 2100 63.1 54 46.0 5.6 SSW | 205 13.5 0.00 0.00 42.2 74.8
4/21/19 - 2000 66.0 52 48.1 5.0 WSW | 254 11.1 0.00 0.00 42.2 74.8
4/21/19 - 1900 69.7 47 48.6 10.2 SW | 233 15.8 0.00 0.00 42.2 74.8
4/21/19 - 1800 71.5 46 49.4 13.9 WSW | 237 20.5 0.00 0.00 42.2 74.8
4/21/19 - 1700 73.0 46 51.0 13.4 SW | 234 18.5 0.00 0.00 42.2 74.8
4/21/19 - 1600 73.2 47 51.6 13.6 SW | 235 19.8 0.00 0.00 42.2 74.8
4/21/19 - 1500 73.8 46 51.7 11.8 SW | 234 18.5 0.00 0.00 42.2 74.8
4/21/19 - 1400 72.0 48 51.4 11.1 SSW | 213 18.2 0.00 0.00 42.2 73.3
4/21/19 - 1300 69.4 49 49.4 8.0 SSW | 195 14.5 0.00 0.00 42.2 70.9
4/21/19 - 1200 66.4 53 48.7 6.9 SSE | 167 11.8 0.00 0.00 42.2 67.9
4/21/19 - 1100 63.8 56 48.0 4.5 S | 186 9.5 0.00 0.00 42.2 65.8
4/21/19 - 1000 61.0 63 48.2 5.2 S | 175 9.5 0.00 0.00 42.2 62.4
4/21/19 - 0900 57.9 70 48.1 1.5 SSE | 165 5.1 0.00 0.00 42.2 60.1
4/21/19 - 0800 49.6 92 47.2 0.6 WSW | 258 3.1 0.00 0.00 42.2 54.6
4/21/19 - 0700 43.0 97 42.4 0.6 W | 277 3.1 0.00 0.00 42.2 50.7
4/21/19 - 0600 43.4 97 42.6 1.0 NW | 317 3.1 0.00 0.00 42.2 50.7
4/21/19 - 0500 44.3 95 43.0 1.0 NW | 317 3.1 0.00 0.00 43.6 50.7
4/21/19 - 0400 45.8 94 44.3 1.3 NE | 54 3.4 0.00 0.00 45.0 50.7
4/21/19 - 0300 47.7 91 45.3 1.1 NNE | 22 4.4 0.00 0.00 46.2 50.7
4/21/19 - 0200 49.8 86 45.9 1.6 SSE | 147 6.1 0.00 0.00 48.9 50.7
4/21/19 - 0100 51.2 82 46.0 3.4 S | 187 7.1 0.00 0.00 50.6 68.2
4/21/19 - 0000 52.4 80 46.3 6.3 SSW | 200 10.8 0.00 0.00 51.6 68.2
4/20/19 - 2300 53.4 77 46.4 5.7 SSW | 193 11.1 0.00 0.00 52.5 68.2
4/20/19 - 2200 54.4 75 46.8 6.7 SSW | 197 11.5 0.00 0.00 53.0 68.2
4/20/19 - 2100 56.4 71 47.0 9.6 SW | 216 14.8 0.00 0.00 53.0 68.2
4/20/19 - 2000 59.5 65 47.6 10.3 SW | 224 15.5 0.00 0.00 53.0 68.2
4/20/19 - 1900 62.2 59 47.8 13.8 SW | 231 21.9 0.00 0.00 53.0 68.2
4/20/19 - 1800 63.7 57 48.1 16.7 SSW | 213 23.9 0.00 0.00 53.0 68.2
4/20/19 - 1700 64.8 55 48.2 18.2 SW | 236 26.2 0.00 0.00 53.0 68.2
4/20/19 - 1600 66.1 52 48.1 16.3 SW | 230 25.2 0.00 0.00 53.0 68.2
4/20/19 - 1500 66.5 54 49.3 16.0 SW | 223 23.9 0.00 0.00 53.0 68.2
4/20/19 - 1400 67.4 55 50.8 17.0 SW | 218 24.2 0.00 0.00 53.0 68.2
4/20/19 - 1300 66.5 60 52.0 15.0 SW | 220 22.9 0.00 0.00 53.0 68.2
4/20/19 - 1200 64.8 64 52.2 16.6 SW | 223 24.6 0.00 0.00 53.0 65.7
4/20/19 - 1100 61.6 71 52.2 11.3 SW | 228 22.9 0.00 0.00 53.0 64.7
4/20/19 - 1000 57.0 82 51.4 8.5 SW | 216 14.5 0.00 0.00 53.0 59.0
4/20/19 - 0900 54.4 87 50.7 9.9 SW | 218 16.2 0.00 0.00 53.0 55.5
4/20/19 - 0800 53.7 88 50.4 10.2 SW | 230 16.2 0.00 0.00 53.0 55.4
4/20/19 - 0700 53.9 88 50.3 8.9 SW | 215 18.2 0.00 0.00 53.0 55.4
4/20/19 - 0600 53.5 89 50.4 9.8 WSW | 238 18.8 0.00 0.00 53.0 55.4
4/20/19 - 0500 53.4 89 50.2 13.0 WSW | 239 20.2 0.00 0.00 53.0 55.4
4/20/19 - 0400 53.5 88 50.1 15.8 WSW | 240 25.2 0.00 0.00 53.0 55.4
4/20/19 - 0300 54.0 89 50.8 12.0 WSW | 241 21.5 0.00 0.00 53.6 55.4
4/20/19 - 0200 55.0 88 51.4 12.4 SW | 233 18.8 0.00 0.00 54.6 55.4
4/20/19 - 0100 55.2 87 51.5 13.4 SW | 228 19.8 0.00 0.00 48.7 82.9
4/20/19 - 0000 55.1 87 51.5 13.0 SW | 226 21.5 0.00 0.00 48.7 82.9
4/19/19 - 2300 56.1 84 51.2 12.0 SW | 224 17.8 0.00 0.00 48.7 82.9
4/19/19 - 2200 58.0 78 51.3 9.1 SW | 225 14.5 0.00 0.00 48.7 82.9
4/19/19 - 2100 60.4 70 50.4 6.6 W | 261 16.5 0.00 0.00 48.7 82.9
4/19/19 - 2000 62.6 70 52.8 10.5 WSW | 239 17.2 0.00 0.00 48.7 82.9
4/19/19 - 1900 68.3 61 54.1 7.9 SW | 234 15.2 0.00 0.00 48.7 82.9
4/19/19 - 1800 74.2 52 55.5 7.3 WSW | 242 12.5 0.00 0.00 48.7 82.9
4/19/19 - 1700 77.6 48 56.5 11.2 SW | 234 16.2 0.00 0.00 48.7 82.9
4/19/19 - 1600 80.4 42 55.0 11.1 SW | 229 17.5 0.00 0.00 48.7 82.9
4/19/19 - 1500 81.1 40 54.9 11.2 SW | 214 18.2 0.00 0.00 48.7 82.9
4/19/19 - 1400 79.4 43 54.6 8.0 S | 189 12.8 0.00 0.00 48.7 81.3
4/19/19 - 1300 77.2 48 56.2 5.3 S | 173 9.1 0.00 0.00 48.7 78.0
4/19/19 - 1200 74.6 50 54.8 3.5 SSE | 168 7.8 0.00 0.00 48.7 76.6
4/19/19 - 1100 71.8 55 54.7 4.0 S | 170 8.8 0.00 0.00 48.7 73.7
4/19/19 - 1000 69.4 62 56.0 1.5 WNW | 295 4.8 0.00 0.00 48.7 71.9
4/19/19 - 0900 62.5 77 55.1 1.2 N | 349 4.8 0.00 0.00 48.7 66.3
4/19/19 - 0800 54.5 93 52.5 0.6 WSW | 258 3.1 0.00 0.00 48.7 58.3
4/19/19 - 0700 51.3 96 50.2 1.9 NW | 316 4.8 0.00 0.00 48.7 56.1
4/19/19 - 0600 49.9 97 49.2 1.6 WSW | 238 4.4 0.00 0.00 48.7 56.1
4/19/19 - 0500 50.6 98 50.0 1.2 NW | 324 3.8 0.00 0.00 49.6 56.1
4/19/19 - 0400 50.4 96 49.5 0.5 WNW | 284 2.4 0.00 0.00 49.7 56.1
4/19/19 - 0300 52.1 95 50.7 0.4 N | 351 0.7 0.00 0.00 51.2 56.1
4/19/19 - 0200 53.8 91 51.3 0.9 WNW | 298 3.4 0.00 0.00 52.7 56.1
4/19/19 - 0100 55.3 86 51.0 1.3 S | 181 3.8 0.00 0.00 45.7 83.4
4/19/19 - 0000 55.9 88 52.6 1.1 WSW | 241 3.1 0.00 0.00 45.7 83.4
4/18/19 - 2300 58.3 85 53.8 1.6 W | 263 5.1 0.00 0.00 45.7 83.4
4/18/19 - 2200 61.7 79 55.2 2.8 W | 274 5.8 0.00 0.00 45.7 83.4
4/18/19 - 2100 65.0 76 57.2 2.8 WNW | 299 5.1 0.00 0.00 45.7 83.4
4/18/19 - 2000 73.9 56 57.0 1.3 WSW | 251 3.4 0.00 0.00 45.7 83.4
4/18/19 - 1900 79.3 40 52.6 3.9 SSE | 150 7.8 0.00 0.00 45.7 83.4
4/18/19 - 1800 81.1 36 51.4 6.4 SE | 134 11.5 0.00 0.00 45.7 83.4
4/18/19 - 1700 81.6 41 56.0 7.7 SE | 124 12.8 0.00 0.00 45.7 83.4
4/18/19 - 1600 82.0 35 51.8 4.5 ENE | 58 16.8 0.00 0.00 45.7 83.4
4/18/19 - 1500 80.5 39 53.2 5.7 ENE | 59 12.5 0.00 0.00 45.7 82.1
4/18/19 - 1400 78.0 42 53.2 7.2 ENE | 58 13.8 0.00 0.00 45.7 79.2
4/18/19 - 1300 75.8 46 53.8 6.3 ENE | 66 14.2 0.00 0.00 45.7 77.6
4/18/19 - 1200 73.8 51 54.4 5.3 E | 80 10.1 0.00 0.00 45.7 75.1
4/18/19 - 1100 70.6 53 52.7 3.1 SE | 135 7.4 0.00 0.00 45.7 72.7
4/18/19 - 1000 66.2 60 52.1 1.2 E | 84 5.1 0.00 0.00 45.7 68.7
4/18/19 - 0900 60.9 76 53.2 1.0 SSE | 148 3.8 0.00 0.00 45.7 64.6
4/18/19 - 0800 51.8 96 50.6 1.6 NW | 315 4.4 0.00 0.00 45.7 56.2
4/18/19 - 0700 46.6 97 45.9 0.6 W | 278 2.4 0.00 0.00 45.7 52.2
4/18/19 - 0600 47.1 96 45.9 1.1 NNW | 336 3.4 0.00 0.00 46.5 52.2
4/18/19 - 0500 49.8 94 48.1 1.2 NNE | 22 3.8 0.00 0.00 47.7 52.2
4/18/19 - 0400 48.3 94 46.7 0.7 SSW | 210 3.4 0.00 0.00 47.7 52.2
4/18/19 - 0300 50.0 93 48.2 0.8 NW | 307 3.1 0.00 0.00 48.8 52.2
4/18/19 - 0200 50.6 91 48.1 0.7 W | 261 3.1 0.00 0.00 49.2 52.2
4/18/19 - 0100 52.0 90 49.0 2.3 W | 262 4.4 0.00 0.00 43.3 75.4
4/18/19 - 0000 54.0 86 49.9 1.5 WNW | 298 4.4 0.00 0.00 43.3 75.4
4/17/19 - 2300 57.8 81 51.9 1.4 WNW | 295 4.4 0.00 0.00 43.3 75.4
4/17/19 - 2200 61.1 65 49.2 2.4 W | 261 6.1 0.00 0.00 43.3 75.4
4/17/19 - 2100 62.7 62 49.8 2.8 SW | 225 5.8 0.00 0.00 43.3 75.4
4/17/19 - 2000 67.0 59 52.3 7.4 SW | 229 12.5 0.00 0.00 43.3 75.4
4/17/19 - 1900 71.5 51 52.5 9.6 SW | 232 14.2 0.00 0.00 43.3 75.4
4/17/19 - 1800 73.8 48 53.2 10.5 SW | 230 16.2 0.00 0.00 43.3 75.4
4/17/19 - 1700 74.4 42 49.9 9.8 SW | 232 15.2 0.00 0.00 43.3 75.4
4/17/19 - 1600 74.2 43 50.6 7.8 SW | 221 13.5 0.00 0.00 43.3 75.4
4/17/19 - 1500 73.2 46 51.0 5.5 SW | 219 12.1 0.00 0.00 43.3 74.6
4/17/19 - 1400 71.2 49 51.2 4.6 SW | 229 11.8 0.00 0.00 43.3 72.6
4/17/19 - 1300 69.5 50 50.3 4.5 S | 173 10.8 0.00 0.00 43.3 71.2
4/17/19 - 1200 66.7 53 49.3 2.7 S | 170 7.4 0.00 0.00 43.3 68.0
4/17/19 - 1100 64.1 61 50.4 4.0 SSE | 159 8.1 0.00 0.00 43.3 65.9
4/17/19 - 1000 61.1 69 51.0 3.7 S | 183 8.8 0.00 0.00 43.3 62.4
4/17/19 - 0900 57.5 78 50.7 0.6 NW | 325 3.1 0.00 0.00 43.3 60.4
4/17/19 - 0800 49.2 95 47.9 0.5 WNW | 294 2.7 0.00 0.00 43.3 54.4
4/17/19 - 0700 44.9 97 44.0 1.1 NW | 311 3.4 0.00 0.00 43.3 49.3
4/17/19 - 0600 45.0 97 44.2 1.5 W | 267 4.1 0.00 0.00 43.3 49.3
4/17/19 - 0500 46.0 96 44.9 1.3 W | 272 4.1 0.00 0.00 44.5 49.3
4/17/19 - 0400 46.1 95 44.8 1.8 WSW | 241 4.4 0.00 0.00 45.0 49.3
4/17/19 - 0300 47.2 95 45.7 2.4 W | 267 4.4 0.00 0.00 46.2 49.3
4/17/19 - 0200 48.3 92 46.2 2.2 WSW | 256 4.8 0.00 0.00 46.5 49.3
4/17/19 - 0100 48.8 92 46.7 2.5 W | 271 4.4 0.00 0.04 47.2 69.2
4/17/19 - 0000 49.2 93 47.2 2.8 W | 276 4.8 0.00 0.04 48.2 69.2
4/16/19 - 2300 49.7 92 47.6 2.1 NW | 305 3.8 0.00 0.04 48.2 69.2
4/16/19 - 2200 52.8 83 47.6 1.2 WNW | 286 3.4 0.00 0.04 48.7 69.2
4/16/19 - 2100 57.2 68 46.9 3.9 W | 279 9.8 0.00 0.04 48.7 69.2
4/16/19 - 2000 59.8 65 48.0 7.3 WSW | 257 12.8 0.00 0.04 48.7 69.2
4/16/19 - 1900 63.7 61 49.9 10.1 SW | 224 15.2 0.00 0.04 48.7 69.2
4/16/19 - 1800 66.3 56 50.0 9.8 SW | 216 14.2 0.00 0.04 48.7 69.2
Max 89.3 98 57.2 18.2 - 26.2 0.00 0.04 61.7 90.9
Avg 63.1 66 49.1 5.4 - 10.3 0.00 - - -
Min 43.0 15 32.7 0.4 - 0.7 0.00 0.00 42.2 49.3
Total - - - - - - 0.00 - - -
Tip: Bookmark this page for easy future reference